Time;durP1;ratioP1;P1;durP2;ratioP2;P2;SDS_P1;SDS_P2;PMS_P1;PMS_P2;Temp;Humidity;BMP_temperature;BMP_pressure;BME280_temperature;BME280_humidity;BME280_pressure;Samples;Min_cycle;Max_cycle;Signal;HPM_P1;HPM_P2
2021/12/17 00:07:24;;;;;;;14.60;10.78;;;;;;;9.01;57.11;101936.60;1660175;85;21054;-53
2021/12/17 00:09:52;;;;;;;16.17;11.30;;;;;;;9.01;57.22;101937.02;1658547;85;21054;-53
2021/12/17 00:12:22;;;;;;;16.30;10.45;;;;;;;9.01;57.19;101932.70;1657428;86;21038;-53
2021/12/17 00:14:49;;;;;;;15.55;10.48;;;;;;;9.03;57.17;101939.20;1659960;85;21053;-52
2021/12/17 00:17:22;;;;;;;16.62;11.97;;;;;;;9.02;57.06;101936.18;1660157;85;21100;-52
2021/12/17 00:20:17;;;;;;;15.18;11.43;;;;;;;9.00;57.17;101932.71;1648508;86;21037;-52
2021/12/17 00:49:29;;;;;;;22.25;13.60;;;;;;;8.97;57.41;101895.05;1768741;80;21046;-53
2021/12/17 00:52:01;;;;;;;19.45;13.18;;;;;;;8.96;57.41;101884.24;1771412;80;21025;-53
2021/12/17 00:54:38;;;;;;;20.62;13.03;;;;;;;9.03;57.39;101885.97;1769299;80;20963;-52
2021/12/17 00:57:16;;;;;;;21.57;14.18;;;;;;;9.08;57.36;101891.19;1766139;80;21035;-53
2021/12/17 00:59:48;;;;;;;23.75;14.95;;;;;;;9.08;57.35;101877.78;1723160;83;21069;-52
2021/12/17 01:02:19;;;;;;;23.18;14.93;;;;;;;9.11;57.28;101873.87;1702006;81;21034;-52
2021/12/17 01:04:50;;;;;;;23.95;15.00;;;;;;;9.11;57.32;101867.37;1709763;82;21038;-52
2021/12/17 01:07:19;;;;;;;23.33;14.87;;;;;;;9.12;57.31;101867.83;1690622;83;21577;-52
2021/12/17 01:09:46;;;;;;;27.87;16.75;;;;;;;9.11;57.33;101862.19;1683022;83;21260;-52
2021/12/17 01:12:14;;;;;;;25.43;15.85;;;;;;;9.13;57.46;101860.45;1675161;83;21112;-52
2021/12/17 01:14:43;;;;;;;26.17;16.35;;;;;;;9.15;57.54;101851.40;1540369;92;21127;-53
2021/12/17 01:17:31;;;;;;;21.62;15.40;;;;;;;9.16;57.56;101851.39;1576221;89;21596;-52
2021/12/17 01:20:26;;;;;;;28.25;17.90;;;;;;;9.18;57.56;101847.06;1556832;90;21554;-53
2021/12/17 01:40:13;;;;;;;29.98;17.45;;;;;;;9.29;57.83;101814.62;1509819;93;21096;-53
2021/12/17 01:42:14;;;;;;;26.40;17.05;;;;;;;9.30;57.75;101809.41;1499129;93;21145;-53
2021/12/17 01:44:42;;;;;;;27.93;17.82;;;;;;;9.29;57.76;101809.00;1548361;91;21091;-53
2021/12/17 01:47:11;;;;;;;27.10;17.15;;;;;;;9.31;57.84;101809.86;1520581;91;21102;-54
2021/12/17 02:00:23;;;;;;;27.00;18.17;;;;;;;9.39;57.85;101778.25;1566843;89;21580;-52
2021/12/17 02:02:54;;;;;;;26.73;19.15;;;;;;;9.43;57.98;101772.19;1541688;91;21158;-53
2021/12/17 02:05:23;;;;;;;25.40;17.05;;;;;;;9.46;58.04;101777.36;1593536;88;21560;-53
2021/12/17 02:07:53;;;;;;;25.85;17.90;;;;;;;9.49;58.06;101776.08;1606667;87;21794;-53
2021/12/17 02:10:53;;;;;;;27.40;18.52;;;;;;;9.52;57.99;101772.16;1601304;88;21025;-53
2021/12/17 02:31:43;;;;;;;25.65;18.42;;;;;;;9.74;57.82;101743.98;1568617;90;21074;-53
2021/12/17 02:37:04;;;;;;;26.85;18.85;;;;;;;9.77;57.87;101743.09;1575399;90;21181;-52
2021/12/17 02:39:59;;;;;;;23.65;17.23;;;;;;;9.78;57.94;101737.03;1568058;90;21158;-52
2021/12/17 02:47:34;;;;;;;24.63;17.87;;;;;;;9.84;58.06;101723.59;1561440;90;21151;-52
2021/12/17 02:50:00;;;;;;;25.32;18.25;;;;;;;9.82;58.14;101713.64;1567251;90;21093;-52
2021/12/17 02:52:30;;;;;;;23.62;17.12;;;;;;;9.72;58.42;101711.94;1575283;91;21086;-53
2021/12/17 02:54:59;;;;;;;23.12;16.50;;;;;;;9.65;58.81;101706.31;1566349;91;21640;-52
2021/12/17 02:57:26;;;;;;;21.20;15.38;;;;;;;9.62;59.16;101710.20;1593387;88;21069;-52
2021/12/17 02:59:53;;;;;;;20.92;15.93;;;;;;;9.66;59.28;101701.56;1648945;86;21050;-52
2021/12/17 03:02:22;;;;;;;17.42;13.22;;;;;;;9.66;59.38;101698.97;1649829;86;21082;-55
2021/12/17 03:04:48;;;;;;;17.77;14.40;;;;;;;9.60;59.63;101701.55;1692457;83;20997;-53
2021/12/17 03:07:15;;;;;;;14.33;12.18;;;;;;;9.55;59.90;101696.82;1687429;83;21034;-53
2021/12/17 03:12:17;;;;;;;15.65;10.95;;;;;;;9.46;60.31;101692.94;1688073;83;21541;-52
2021/12/17 03:14:47;;;;;;;13.75;10.65;;;;;;;9.41;60.54;101694.70;1687175;84;22149;-52
2021/12/17 03:17:11;;;;;;;11.48;9.35;;;;;;;9.40;60.68;101691.65;1684182;84;21151;-52
2021/12/17 03:25:06;;;;;;;11.43;9.75;;;;;;;9.45;60.85;101682.13;1754248;80;21038;-54
2021/12/17 03:27:34;;;;;;;11.03;8.90;;;;;;;9.47;60.99;101686.89;1753257;80;21097;-52
2021/12/17 03:30:01;;;;;;;10.68;8.30;;;;;;;9.51;61.04;101676.91;1760142;80;21045;-52
2021/12/17 03:32:27;;;;;;;9.20;7.45;;;;;;;9.54;61.02;101676.89;1772549;80;21074;-53
2021/12/17 03:34:54;;;;;;;8.85;6.97;;;;;;;9.58;61.00;101679.91;1749166;80;21007;-52
2021/12/17 03:37:20;;;;;;;9.83;7.17;;;;;;;9.59;60.91;101671.26;1759375;80;21006;-53
2021/12/17 03:39:49;;;;;;;10.50;7.80;;;;;;;9.62;60.89;101671.23;1769294;80;21022;-53
2021/12/17 03:42:15;;;;;;;9.15;7.50;;;;;;;9.62;60.94;101679.48;1756724;80;21061;-52
2021/12/17 03:44:42;;;;;;;8.98;6.75;;;;;;;9.58;61.08;101673.87;1762456;80;21546;-52
2021/12/17 03:47:14;;;;;;;8.55;6.35;;;;;;;9.56;61.26;101666.52;1770635;80;21558;-52
2021/12/17 03:49:54;;;;;;;7.78;6.75;;;;;;;9.53;61.44;101664.78;1733846;81;21507;-52
2021/12/17 03:52:21;;;;;;;7.72;6.45;;;;;;;9.53;61.63;101664.78;1771103;80;21029;-53
2021/12/17 03:54:48;;;;;;;9.00;7.05;;;;;;;9.52;61.70;101660.44;1769917;80;20994;-53
2021/12/17 03:57:18;;;;;;;7.12;6.42;;;;;;;9.52;61.95;101659.14;1687187;83;21047;-53
2021/12/17 03:59:45;;;;;;;7.08;6.22;;;;;;;9.52;61.97;101656.55;1711918;83;21094;-53
2021/12/17 04:02:13;;;;;;;9.30;6.60;;;;;;;9.51;62.05;101656.13;1712427;83;21526;-53
2021/12/17 04:04:39;;;;;;;7.60;6.67;;;;;;;9.52;62.10;101645.31;1717664;83;21561;-53
2021/12/17 04:07:23;;;;;;;8.13;7.00;;;;;;;9.45;62.32;101649.66;1628628;87;21047;-53
2021/12/17 04:09:52;;;;;;;7.03;5.87;;;;;;;9.40;62.51;101642.30;1627314;87;21044;-53
2021/12/17 04:12:23;;;;;;;7.67;6.78;;;;;;;9.38;62.69;101639.27;1636403;87;21162;-53
2021/12/17 04:14:51;;;;;;;6.35;5.75;;;;;;;9.36;62.87;101637.98;1678169;84;21047;-54
2021/12/17 04:17:24;;;;;;;6.03;5.42;;;;;;;9.35;63.00;101629.77;1653107;85;21082;-54
2021/12/17 04:19:46;;;;;;;6.80;5.60;;;;;;;9.35;63.18;101634.97;1666543;85;21051;-55
2021/12/17 04:22:12;;;;;;;6.60;6.00;;;;;;;9.36;63.30;101632.78;1668970;85;21074;-55
2021/12/17 04:24:39;;;;;;;7.22;5.42;;;;;;;9.38;63.36;101636.67;1662286;85;21109;-53
2021/12/17 04:27:07;;;;;;;7.75;5.78;;;;;;;9.39;63.46;101633.22;1680655;84;21066;-53
2021/12/17 04:29:40;;;;;;;8.83;6.28;;;;;;;9.41;63.57;101637.55;1667971;84;21086;-53
2021/12/17 04:32:03;;;;;;;8.08;5.75;;;;;;;9.36;63.73;101641.88;1665816;85;21062;-53
2021/12/17 04:34:32;;;;;;;7.65;6.30;;;;;;;9.37;63.97;101633.23;1680814;85;21111;-53
2021/12/17 04:36:59;;;;;;;7.00;6.05;;;;;;;9.43;63.91;101628.02;1676815;85;21030;-53
2021/12/17 04:39:28;;;;;;;6.58;5.90;;;;;;;9.56;63.56;101625.78;1665018;85;21070;-53
2021/12/17 04:42:00;;;;;;;6.58;5.87;;;;;;;9.61;63.45;101621.45;1693206;84;21601;-54
2021/12/17 04:44:31;;;;;;;7.50;6.55;;;;;;;9.64;63.42;101617.52;1685036;83;21055;-53
2021/12/17 04:57:56;;;;;;;7.10;6.40;;;;;;;9.69;63.59;101604.08;1687418;84;21425;-54
2021/12/17 05:00:26;;;;;;;9.45;6.85;;;;;;;9.70;63.60;101610.16;1703798;83;21042;-55
2021/12/17 05:02:56;;;;;;;8.13;7.33;;;;;;;9.75;63.70;101610.55;1627926;86;21046;-54
2021/12/17 05:05:28;;;;;;;10.00;7.58;;;;;;;9.79;63.66;101612.69;1634754;86;21077;-54
2021/12/17 05:08:02;;;;;;;8.90;8.00;;;;;;;9.81;63.48;101620.91;1612860;87;21062;-54
2021/12/17 05:18:55;;;;;;;9.38;6.92;;;;;;;9.69;63.74;101625.30;1680432;83;21143;-54
2021/12/17 05:21:15;;;;;;;8.15;7.35;;;;;;;9.66;63.89;101626.20;1682017;83;21107;-54
2021/12/17 05:23:46;;;;;;;9.18;7.10;;;;;;;9.68;63.96;101628.36;1631703;84;20999;-54
2021/12/17 05:26:16;;;;;;;9.23;7.53;;;;;;;9.67;64.03;101618.82;1684322;84;21511;-55
2021/12/17 05:28:45;;;;;;;8.48;7.65;;;;;;;9.68;64.04;101614.06;1674083;83;21098;-54
2021/12/17 05:31:14;;;;;;;10.38;7.05;;;;;;;9.69;64.15;101618.38;1683457;84;21497;-55
2021/12/17 05:33:43;;;;;;;8.30;7.15;;;;;;;9.71;64.07;101621.83;1684126;83;21085;-55
2021/12/17 05:36:10;;;;;;;9.00;7.42;;;;;;;9.73;63.99;101626.59;1685508;83;21518;-54
2021/12/17 05:38:39;;;;;;;8.73;7.17;;;;;;;9.74;63.96;101624.43;1691277;83;21126;-54
2021/12/17 05:41:06;;;;;;;8.43;7.47;;;;;;;9.76;64.02;101624.41;1688252;82;21015;-54
2021/12/17 05:43:37;;;;;;;8.43;7.62;;;;;;;9.77;64.01;101619.63;1681004;84;21078;-55
2021/12/17 05:48:34;;;;;;;9.65;8.30;;;;;;;9.80;63.99;101623.10;1682205;83;21114;-54
2021/12/17 05:51:03;;;;;;;10.15;9.03;;;;;;;9.80;64.02;101612.70;1679414;83;21093;-54
2021/12/17 05:53:30;;;;;;;10.48;8.95;;;;;;;9.81;63.97;101613.11;1680549;83;21043;-54
2021/12/17 05:55:59;;;;;;;10.32;9.30;;;;;;;9.83;63.92;101616.57;1631128;86;21105;-54
2021/12/17 05:58:28;;;;;;;11.60;8.45;;;;;;;9.86;63.99;101619.59;1676109;80;21095;-54
2021/12/17 06:00:55;;;;;;;9.00;7.95;;;;;;;9.90;63.91;101613.94;1766652;80;20967;-54
2021/12/17 06:03:23;;;;;;;8.95;8.00;;;;;;;9.90;63.77;101612.21;1673066;84;21039;-54
2021/12/17 06:05:54;;;;;;;9.05;7.85;;;;;;;9.90;63.73;101611.34;1655580;85;21078;-54
2021/12/17 06:08:21;;;;;;;9.63;8.48;;;;;;;9.89;63.59;101609.63;1655306;85;21097;-54
2021/12/17 06:10:49;;;;;;;9.10;8.30;;;;;;;9.88;63.55;101607.88;1660263;85;21074;-54
2021/12/17 06:13:16;;;;;;;12.05;8.63;;;;;;;9.87;63.41;101611.38;1670782;84;21014;-53
2021/12/17 06:15:45;;;;;;;10.65;8.58;;;;;;;9.91;63.25;101611.78;1661502;85;21150;-53
2021/12/17 06:18:14;;;;;;;11.10;8.23;;;;;;;9.92;63.21;101617.39;1659627;85;21105;-54
2021/12/17 06:20:41;;;;;;;8.80;7.90;;;;;;;9.79;63.38;101613.56;1662026;84;21062;-54
2021/12/17 06:23:07;;;;;;;7.92;7.08;;;;;;;9.81;63.46;101620.91;1662198;85;21030;-54
2021/12/17 06:25:35;;;;;;;7.95;7.15;;;;;;;9.89;63.12;101616.13;1653224;85;21118;-53
2021/12/17 06:28:01;;;;;;;7.92;7.12;;;;;;;9.92;62.98;101619.99;1662625;85;21187;-53
2021/12/17 06:30:30;;;;;;;8.53;7.60;;;;;;;9.93;62.86;101621.73;1660834;85;21081;-53
2021/12/17 06:32:56;;;;;;;7.75;6.80;;;;;;;9.93;62.78;101617.41;1648513;85;21034;-53
2021/12/17 06:35:23;;;;;;;9.03;7.08;;;;;;;9.94;62.57;101613.05;1651505;85;21058;-53
2021/12/17 06:37:50;;;;;;;9.13;7.35;;;;;;;9.93;62.46;101616.53;1664766;84;21578;-52
2021/12/17 06:40:21;;;;;;;8.23;7.23;;;;;;;9.92;62.36;101622.59;1657460;85;21070;-53
2021/12/17 06:42:49;;;;;;;8.33;6.97;;;;;;;9.84;62.54;101617.02;1658011;85;21711;-53
2021/12/17 06:45:24;;;;;;;7.40;6.55;;;;;;;9.84;62.59;101616.14;1655300;84;21111;-53
2021/12/17 06:47:53;;;;;;;8.73;6.42;;;;;;;9.90;62.46;101624.34;1658199;85;21119;-53
2021/12/17 06:56:57;;;;;;;8.25;6.37;;;;;;;9.91;62.00;101628.25;1580563;89;21548;-53
2021/12/17 07:10:42;;;;;;;6.75;5.72;;;;;;;10.08;61.34;101632.03;1449897;97;21543;-53
2021/12/17 07:19:25;;;;;;;7.75;5.50;;;;;;;10.00;61.21;101635.98;1449977;97;21563;-54
2021/12/17 07:32:20;;;;;;;7.10;5.10;;;;;;;10.00;60.98;101644.21;1440731;99;21152;-53
2021/12/17 07:39:42;;;;;;;6.50;5.40;;;;;;;10.02;60.60;101634.67;1589264;87;21093;-53
2021/12/17 07:42:11;;;;;;;6.90;5.95;;;;;;;10.02;60.45;101634.67;1512596;92;21672;-52
2021/12/17 07:44:48;;;;;;;8.70;5.80;;;;;;;10.00;60.23;101629.91;1506261;93;21127;-52
2021/12/17 07:47:19;;;;;;;6.67;5.37;;;;;;;9.96;60.07;101626.91;1504277;95;21612;-52
2021/12/17 07:49:48;;;;;;;7.35;5.62;;;;;;;9.93;60.13;101632.13;1497653;94;21824;-52
2021/12/17 07:52:14;;;;;;;7.40;6.08;;;;;;;9.93;60.25;101616.53;1503762;95;21169;-53
2021/12/17 07:54:41;;;;;;;6.87;4.97;;;;;;;9.96;60.16;101615.20;1481678;95;21126;-52
2021/12/17 07:57:07;;;;;;;6.67;5.20;;;;;;;10.01;60.00;101625.16;1488122;95;21122;-52
2021/12/17 07:59:35;;;;;;;7.60;5.35;;;;;;;10.03;59.80;101610.41;1501215;95;21065;-52
2021/12/17 08:02:03;;;;;;;6.42;5.17;;;;;;;10.06;59.71;101621.64;1504692;95;21565;-52
2021/12/17 08:04:33;;;;;;;5.62;4.97;;;;;;;10.09;59.67;101625.97;1505467;95;21084;-54
2021/12/17 08:07:04;;;;;;;6.20;5.17;;;;;;;10.12;59.55;101626.00;1462360;96;21139;-52
2021/12/17 08:09:33;;;;;;;7.12;4.62;;;;;;;10.12;59.33;101622.94;1495588;94;21113;-53
2021/12/17 08:12:02;;;;;;;7.05;4.97;;;;;;;10.12;59.32;101626.00;1506342;95;21121;-52
2021/12/17 08:14:33;;;;;;;6.97;5.25;;;;;;;10.15;59.18;101631.17;1463128;97;21196;-52
2021/12/17 08:25:13;;;;;;;6.15;4.60;;;;;;;10.23;59.18;101619.84;1450368;97;21176;-52
2021/12/17 08:28:04;;;;;;;6.97;5.17;;;;;;;10.25;59.03;101626.33;1557119;87;21615;-52
2021/12/17 08:30:28;;;;;;;5.35;4.50;;;;;;;10.25;58.95;101628.50;1635375;86;21116;-51
2021/12/17 08:32:57;;;;;;;7.00;5.20;;;;;;;10.22;59.27;101622.47;1621858;87;21104;-52
2021/12/17 08:35:24;;;;;;;5.17;4.67;;;;;;;10.30;59.05;101620.67;1611484;86;21128;-52
2021/12/17 08:37:54;;;;;;;5.03;3.70;;;;;;;10.33;58.93;101620.64;1605439;88;21572;-52
2021/12/17 08:40:20;;;;;;;6.47;4.10;;;;;;;10.35;58.69;101616.28;1625129;86;21538;-52
2021/12/17 08:42:49;;;;;;;6.15;3.58;;;;;;;10.46;58.23;101613.18;1626986;86;21087;-51
2021/12/17 08:45:16;;;;;;;8.33;4.50;;;;;;;10.51;57.69;101604.88;1636177;86;21518;-51
2021/12/17 08:47:50;;;;;;;5.53;4.35;;;;;;;10.48;57.72;101617.94;1637472;86;21077;-51
2021/12/17 08:50:27;;;;;;;5.78;4.00;;;;;;;10.50;57.25;101613.58;1625573;86;21089;-51
2021/12/17 08:52:55;;;;;;;5.70;3.90;;;;;;;10.49;57.21;101614.01;1747156;80;21077;-52
2021/12/17 08:55:22;;;;;;;6.15;4.50;;;;;;;10.48;57.05;101608.83;1778079;80;21011;-52
2021/12/17 08:57:49;;;;;;;6.72;4.53;;;;;;;10.52;56.98;101604.02;1784690;80;20987;-52
2021/12/17 09:00:16;;;;;;;5.85;3.95;;;;;;;10.61;56.72;101602.66;1784049;80;21003;-52
2021/12/17 09:02:59;;;;;;;6.33;4.30;;;;;;;10.62;56.61;101603.06;1759826;80;21538;-51
2021/12/17 09:05:38;;;;;;;5.28;3.90;;;;;;;10.60;56.42;101594.41;1696509;83;21046;-51
2021/12/17 09:08:06;;;;;;;7.00;4.42;;;;;;;10.60;56.08;101590.50;1711506;83;21089;-52
2021/12/17 09:10:39;;;;;;;7.62;4.42;;;;;;;10.51;56.25;101590.14;1705117;83;21070;-52
2021/12/17 09:13:07;;;;;;;5.62;4.40;;;;;;;10.47;56.23;101592.77;1695121;83;21037;-51
2021/12/17 09:15:34;;;;;;;5.08;3.37;;;;;;;10.45;56.32;101588.02;1721513;83;21007;-51
2021/12/17 09:18:06;;;;;;;5.30;3.73;;;;;;;10.45;56.23;101589.32;1716551;83;21037;-51
2021/12/17 09:20:36;;;;;;;5.03;4.00;;;;;;;10.41;56.29;101577.22;1704820;83;21176;-51
2021/12/17 09:23:03;;;;;;;5.28;3.75;;;;;;;10.40;56.27;101572.90;1700883;83;21093;-51
2021/12/17 09:25:32;;;;;;;5.10;4.00;;;;;;;10.33;56.38;101577.72;1709987;83;21054;-51
2021/12/17 09:28:01;;;;;;;4.20;3.10;;;;;;;10.32;56.53;101579.91;1617909;87;21091;-51
2021/12/17 09:30:32;;;;;;;5.67;3.80;;;;;;;10.34;56.65;101576.42;1594305;88;21089;-51
2021/12/17 09:32:59;;;;;;;4.45;3.67;;;;;;;10.42;56.49;101563.34;1598339;88;21041;-51
2021/12/17 09:35:25;;;;;;;5.15;3.72;;;;;;;10.40;56.33;101562.50;1598883;88;21061;-52
2021/12/17 09:37:52;;;;;;;4.97;3.70;;;;;;;10.40;56.27;101565.09;1596909;88;21025;-51
2021/12/17 09:40:18;;;;;;;6.53;3.83;;;;;;;10.39;56.17;101563.35;1592842;88;21077;-51
2021/12/17 09:42:45;;;;;;;4.40;3.12;;;;;;;10.39;56.19;101564.66;1592092;89;21538;-51
2021/12/17 09:45:13;;;;;;;4.97;3.10;;;;;;;10.46;56.00;101557.23;1594515;89;21114;-51
2021/12/17 09:47:41;;;;;;;4.72;3.80;;;;;;;10.46;56.01;101550.73;1596194;89;21058;-51
2021/12/17 09:50:08;;;;;;;3.62;3.20;;;;;;;10.50;55.71;101555.03;1591744;89;21078;-53
2021/12/17 09:52:35;;;;;;;5.72;3.10;;;;;;;10.49;55.82;101542.88;1590670;89;21030;-51
2021/12/17 09:55:04;;;;;;;7.03;3.67;;;;;;;10.48;55.62;101552.88;1594805;88;21046;-51
2021/12/17 09:57:35;;;;;;;5.97;3.60;;;;;;;10.46;55.48;101562.44;1594235;89;21065;-52
2021/12/17 09:59:59;;;;;;;5.80;3.10;;;;;;;10.41;55.53;101561.17;1620623;85;21497;-51
2021/12/17 10:02:26;;;;;;;6.35;3.30;;;;;;;10.40;55.74;101559.89;1665840;85;21564;-51
2021/12/17 10:04:54;;;;;;;5.10;2.90;;;;;;;10.38;55.66;101561.22;1667615;85;21117;-51
2021/12/17 10:07:28;;;;;;;6.03;3.17;;;;;;;10.33;55.71;101553.88;1670391;84;21025;-51
2021/12/17 10:09:57;;;;;;;4.65;3.15;;;;;;;10.27;55.83;101559.55;1684670;84;21026;-51
2021/12/17 10:12:30;;;;;;;4.87;3.12;;;;;;;10.22;56.04;101560.05;1692438;84;21120;-53
2021/12/17 10:15:10;;;;;;;5.03;3.10;;;;;;;10.20;56.19;101563.09;1627725;85;21122;-51
2021/12/17 10:18:01;;;;;;;5.58;2.95;;;;;;;10.19;55.96;101561.35;1629056;85;21610;-51
2021/12/17 10:20:55;;;;;;;4.22;2.85;;;;;;;10.17;56.07;101559.20;1629639;86;21002;-52
2021/12/17 10:23:23;;;;;;;7.55;3.08;;;;;;;10.17;55.99;101557.90;1641376;86;21667;-51
2021/12/17 10:25:49;;;;;;;6.12;3.20;;;;;;;10.14;55.90;101559.24;1623603;87;21491;-51
2021/12/17 10:28:16;;;;;;;6.05;3.30;;;;;;;10.10;55.81;101540.17;1691232;84;22775;-51
2021/12/17 10:30:47;;;;;;;6.75;2.85;;;;;;;10.08;55.77;101538.41;1723964;80;21011;-51
2021/12/17 10:33:18;;;;;;;7.03;2.45;;;;;;;10.05;55.96;101528.05;1761813;80;21048;-52
2021/12/17 10:35:48;;;;;;;3.00;2.47;;;;;;;10.05;55.89;101528.05;1756406;80;21052;-51
2021/12/17 10:38:18;;;;;;;3.62;2.33;;;;;;;10.07;56.17;101531.51;1759401;80;21030;-51
2021/12/17 10:41:12;;;;;;;3.90;2.62;;;;;;;10.13;55.99;101528.89;1754238;81;21027;-51
2021/12/17 10:43:39;;;;;;;4.42;2.40;;;;;;;10.18;56.01;101533.64;1747129;80;21035;-51
2021/12/17 10:46:27;;;;;;;6.85;3.85;;;;;;;10.19;55.93;101526.24;1762965;80;21521;-51
2021/12/17 10:51:44;;;;;;;4.35;2.65;;;;;;;10.18;56.19;101523.23;1686694;83;21033;-51
2021/12/17 10:54:18;;;;;;;3.22;2.35;;;;;;;10.19;56.29;101523.64;1693899;83;21027;-52
2021/12/17 10:56:48;;;;;;;3.77;2.67;;;;;;;10.22;56.33;101519.73;1702423;83;21097;-52
2021/12/17 10:59:23;;;;;;;4.70;2.47;;;;;;;10.25;56.13;101521.86;1639838;86;21044;-52
2021/12/17 11:01:55;;;;;;;5.85;3.12;;;;;;;10.24;56.15;101507.58;1694723;83;21052;-51
2021/12/17 11:04:30;;;;;;;5.33;3.10;;;;;;;10.24;55.98;101516.22;1684621;84;21108;-51
2021/12/17 11:07:01;;;;;;;4.00;2.58;;;;;;;10.20;55.98;101509.78;1697121;83;21513;-52
2021/12/17 11:09:51;;;;;;;4.58;2.62;;;;;;;10.21;55.95;101521.89;1700411;83;21073;-51
2021/12/17 11:12:37;;;;;;;5.37;2.65;;;;;;;10.23;55.95;101525.34;1692852;83;21652;-51
2021/12/17 11:15:20;;;;;;;4.30;2.70;;;;;;;10.24;56.35;101519.28;1623624;86;21122;-51
2021/12/17 11:18:00;;;;;;;4.75;2.52;;;;;;;10.25;56.60;101520.56;1622629;86;21117;-51
2021/12/17 11:20:36;;;;;;;2.58;1.70;;;;;;;10.25;56.59;101533.99;1693809;83;21097;-51
2021/12/17 11:23:08;;;;;;;2.42;1.45;;;;;;;10.24;56.84;101532.28;1690250;83;21066;-52
2021/12/17 11:25:35;;;;;;;5.50;2.52;;;;;;;10.19;56.09;101532.31;1625091;86;21123;-51
2021/12/17 11:28:03;;;;;;;4.33;2.35;;;;;;;10.13;55.74;101523.69;1707607;81;21081;-51
2021/12/17 11:30:32;;;;;;;2.98;2.00;;;;;;;10.03;56.16;101527.20;1766567;80;21026;-51
2021/12/17 11:33:04;;;;;;;3.15;1.92;;;;;;;9.97;56.47;101515.55;1765644;80;21463;-52
2021/12/17 11:35:34;;;;;;;2.77;1.90;;;;;;;9.93;56.65;101509.95;1773574;80;21518;-51
2021/12/17 11:38:21;;;;;;;3.87;2.17;;;;;;;9.88;56.99;101505.20;1694119;83;21016;-52
2021/12/17 11:41:19;;;;;;;4.20;2.20;;;;;;;9.81;57.33;101500.48;1751722;80;21474;-52
2021/12/17 11:43:58;;;;;;;4.40;2.70;;;;;;;9.80;57.90;101498.77;1657761;85;21131;-52
2021/12/17 11:46:32;;;;;;;3.95;2.72;;;;;;;9.83;58.27;101502.62;1685878;84;21027;-52
2021/12/17 11:49:02;;;;;;;4.15;2.70;;;;;;;9.88;58.47;101501.30;1677953;83;21063;-52
2021/12/17 11:51:32;;;;;;;5.08;2.67;;;;;;;9.92;58.19;101498.68;1634737;86;21042;-52
2021/12/17 11:54:15;;;;;;;3.17;2.47;;;;;;;9.95;57.91;101510.80;1628680;87;21074;-52
2021/12/17 11:56:52;;;;;;;8.15;3.27;;;;;;;9.99;58.00;101506.00;1638685;86;21098;-52
2021/12/17 11:59:32;;;;;;;3.58;2.92;;;;;;;10.00;58.05;101502.51;1573926;89;21040;-52
2021/12/17 12:02:16;;;;;;;4.37;3.15;;;;;;;10.01;58.04;101500.35;1572822;89;21160;-51
2021/12/17 12:04:58;;;;;;;3.87;2.20;;;;;;;10.05;57.66;101498.16;1603848;88;21195;-51
2021/12/17 12:07:31;;;;;;;4.35;2.40;;;;;;;10.05;57.36;101502.05;1623432;86;21077;-51
2021/12/17 12:10:09;;;;;;;7.08;4.20;;;;;;;10.04;56.53;101492.52;1611173;87;21086;-52
2021/12/17 12:12:50;;;;;;;6.80;2.75;;;;;;;9.99;56.37;101494.30;1609595;87;21054;-51
2021/12/17 12:15:31;;;;;;;3.50;1.70;;;;;;;9.99;56.45;101494.30;1618414;86;21058;-51
2021/12/17 12:18:06;;;;;;;4.22;1.85;;;;;;;10.03;56.12;101485.60;1609102;87;21054;-51
2021/12/17 12:20:47;;;;;;;4.00;1.70;;;;;;;10.04;56.04;101484.71;1627183;86;21507;-53
2021/12/17 12:23:33;;;;;;;5.67;2.08;;;;;;;10.04;55.67;101487.31;1585268;89;21077;-51
2021/12/17 12:26:08;;;;;;;4.28;1.55;;;;;;;10.03;55.47;101483.88;1590098;89;21495;-51
2021/12/17 12:28:54;;;;;;;4.78;2.17;;;;;;;10.04;55.07;101492.52;1583167;89;21023;-51
2021/12/17 12:31:34;;;;;;;3.02;1.45;;;;;;;10.05;55.25;101482.55;1577803;89;21631;-51
2021/12/17 12:34:10;;;;;;;4.03;2.02;;;;;;;10.09;54.77;101486.42;1576967;89;21582;-51
2021/12/17 12:37:06;;;;;;;2.60;1.40;;;;;;;10.15;54.57;101484.23;1612678;86;21562;-51
2021/12/17 12:42:27;;;;;;;3.35;1.15;;;;;;;10.16;54.71;101476.88;1594492;86;21605;-50
2021/12/17 12:47:39;;;;;;;4.17;1.67;;;;;;;10.19;54.71;101492.43;1546194;90;21174;-50
2021/12/17 12:50:11;;;;;;;3.58;1.60;;;;;;;10.19;54.53;101487.23;1502552;93;21210;-51
2021/12/17 12:52:49;;;;;;;4.90;1.42;;;;;;;10.18;54.47;101480.32;1511928;93;21073;-50
2021/12/17 12:55:23;;;;;;;3.62;1.57;;;;;;;10.18;54.34;101482.92;1493622;93;21132;-50
2021/12/17 12:57:55;;;;;;;2.95;1.42;;;;;;;10.17;54.28;101474.25;1524133;93;21128;-50
2021/12/17 13:00:38;;;;;;;3.40;1.52;;;;;;;10.22;54.37;101478.11;1486190;94;21624;-50
2021/12/17 13:03:09;;;;;;;2.95;1.47;;;;;;;10.24;54.21;101467.26;1510242;94;21165;-52
2021/12/17 13:05:36;;;;;;;3.70;1.45;;;;;;;10.24;53.84;101477.66;1501363;95;21172;-51
2021/12/17 13:08:06;;;;;;;2.83;1.37;;;;;;;10.23;53.70;101468.13;1493924;94;21116;-50
2021/12/17 13:10:41;;;;;;;3.33;2.10;;;;;;;10.22;53.60;101471.61;1471380;96;21118;-51
2021/12/17 13:24:20;;;;;;;2.98;1.50;;;;;;;10.26;52.92;101481.11;1303524;109;21285;-50
2021/12/17 13:26:59;;;;;;;5.35;1.85;;;;;;;10.26;52.98;101483.72;1333418;106;21203;-50
2021/12/17 13:29:31;;;;;;;2.98;1.57;;;;;;;10.26;53.11;101482.41;1327048;106;21268;-50
2021/12/17 13:32:05;;;;;;;3.00;1.55;;;;;;;10.24;52.87;101491.97;1329364;106;21120;-50
2021/12/17 13:34:35;;;;;;;3.60;1.67;;;;;;;10.24;52.93;101494.57;1340295;106;21232;-50
2021/12/17 13:37:19;;;;;;;3.90;2.15;;;;;;;10.27;52.98;101494.53;1335095;106;21625;-50
2021/12/17 13:39:53;;;;;;;5.50;2.12;;;;;;;10.26;52.90;101496.72;1338384;105;21646;-50
2021/12/17 13:42:33;;;;;;;3.22;1.98;;;;;;;10.23;52.90;101496.30;1340185;107;21209;-53
2021/12/17 13:45:07;;;;;;;4.33;1.50;;;;;;;10.22;52.99;101498.45;1335783;106;21688;-52
2021/12/17 13:47:38;;;;;;;2.95;1.70;;;;;;;10.20;52.81;101496.77;1343815;106;21290;-50
2021/12/17 13:50:25;;;;;;;3.87;2.00;;;;;;;10.17;52.94;101495.48;1354215;104;21189;-50
2021/12/17 13:53:07;;;;;;;16.42;6.60;;;;;;;10.15;53.03;101494.63;1350334;105;21206;-50
2021/12/17 13:55:38;;;;;;;5.72;3.08;;;;;;;10.14;53.22;101500.73;1350581;105;21165;-50
2021/12/17 13:58:15;;;;;;;3.12;1.55;;;;;;;10.12;52.99;101496.81;1371871;102;21099;-50
2021/12/17 14:00:49;;;;;;;2.17;1.55;;;;;;;10.12;52.70;101499.88;1396157;102;21160;-50
2021/12/17 14:03:17;;;;;;;2.05;1.42;;;;;;;10.11;52.79;101504.64;1393922;102;21222;-50
2021/12/17 14:05:48;;;;;;;4.37;1.80;;;;;;;10.10;52.68;101512.87;1384127;101;21101;-50
2021/12/17 14:08:19;;;;;;;4.35;2.15;;;;;;;10.12;52.51;101514.18;1486510;94;21084;-53
2021/12/17 14:10:47;;;;;;;3.25;1.80;;;;;;;10.12;52.38;101519.38;1508302;94;22683;-51
2021/12/17 14:13:24;;;;;;;3.85;2.08;;;;;;;10.11;52.58;101521.54;1562555;90;21631;-50
2021/12/17 14:15:54;;;;;;;4.45;2.55;;;;;;;10.08;52.79;101522.81;1537384;92;21082;-50
2021/12/17 14:18:26;;;;;;;4.03;2.52;;;;;;;10.07;53.05;101518.51;1539221;92;21078;-50
2021/12/17 14:20:55;;;;;;;3.52;1.75;;;;;;;10.05;53.29;101521.55;1568594;89;21052;-50
2021/12/17 14:23:24;;;;;;;5.42;2.87;;;;;;;10.02;53.53;101518.53;1576354;89;21076;-51
2021/12/17 14:25:59;;;;;;;4.12;2.50;;;;;;;10.01;53.69;101518.55;1568877;89;21082;-51
2021/12/17 14:28:33;;;;;;;4.25;2.42;;;;;;;9.98;53.75;101521.16;1588669;89;21098;-50
2021/12/17 14:31:09;;;;;;;3.45;2.20;;;;;;;9.96;53.90;101524.20;1588899;89;21137;-50
2021/12/17 14:33:41;;;;;;;5.58;2.40;;;;;;;9.91;54.04;101522.09;1583852;89;21097;-50
2021/12/17 14:36:11;;;;;;;5.62;3.00;;;;;;;9.88;54.19;101520.38;1463441;96;21146;-50
2021/12/17 14:38:58;;;;;;;8.45;4.58;;;;;;;9.88;54.39;101527.30;1462913;96;21558;-50
2021/12/17 14:41:30;;;;;;;6.50;3.92;;;;;;;9.86;54.67;101524.72;1504326;92;21653;-50
2021/12/17 14:46:32;;;;;;;7.65;4.37;;;;;;;9.83;54.51;101530.80;1526749;93;21162;-51
2021/12/17 14:57:13;;;;;;;5.12;3.67;;;;;;;9.82;54.47;101531.69;1516554;93;21104;-50
2021/12/17 15:03:27;;;;;;;3.90;1.72;;;;;;;9.69;55.05;101534.34;1524167;93;21208;-51
2021/12/17 15:05:51;;;;;;;2.92;1.75;;;;;;;9.68;55.25;101532.64;1519950;93;21068;-50